Time;durP1;ratioP1;P1;durP2;ratioP2;P2;SDS_P1;SDS_P2;PMS_P1;PMS_P2;Temp;Humidity;BMP_temperature;BMP_pressure;BME280_temperature;BME280_humidity;BME280_pressure;Samples;Min_cycle;Max_cycle;Signal;HPM_P1;HPM_P2
2022/07/08 00:00:31;;;;;;;11.60;4.60;;;;;;;21.96;56.27;94637.66;4166096;28;20057;-54
2022/07/08 00:02:32;;;;;;;5.65;4.03;;;;;;;21.92;56.25;94635.66;4174452;28;20455;-53
2022/07/08 00:04:34;;;;;;;6.72;4.40;;;;;;;21.88;56.00;94630.00;4168749;28;20671;-51
2022/07/08 00:06:36;;;;;;;7.25;4.20;;;;;;;21.91;56.05;94618.06;4167192;28;20041;-52
2022/07/08 00:08:38;;;;;;;5.55;4.28;;;;;;;21.85;55.78;94612.63;4165919;28;20195;-50
2022/07/08 00:10:40;;;;;;;4.82;4.25;;;;;;;21.89;56.00;94615.63;4159300;28;20060;-53
2022/07/08 00:12:42;;;;;;;6.82;4.13;;;;;;;21.91;56.01;94608.19;4172072;28;20076;-53
2022/07/08 00:14:43;;;;;;;6.80;4.30;;;;;;;21.92;56.11;94612.50;4163784;28;20493;-52
2022/07/08 00:16:45;;;;;;;6.03;4.00;;;;;;;21.94;55.87;94609.56;4175504;28;20465;-52
2022/07/08 00:18:47;;;;;;;5.65;4.07;;;;;;;21.94;55.77;94612.25;4164209;28;20136;-53
2022/07/08 00:20:49;;;;;;;5.03;3.88;;;;;;;21.92;55.40;94617.84;4171542;28;20136;-52
2022/07/08 00:22:51;;;;;;;7.05;4.10;;;;;;;21.85;55.72;94609.94;4160907;28;20496;-52
2022/07/08 00:24:53;;;;;;;6.28;3.70;;;;;;;21.83;56.00;94616.53;4169791;28;20052;-49
2022/07/08 00:26:54;;;;;;;4.70;4.18;;;;;;;21.76;56.15;94616.66;4159358;28;20060;-54
2022/07/08 00:28:56;;;;;;;5.47;4.28;;;;;;;21.78;56.27;94616.41;4166686;28;20148;-55
2022/07/08 00:30:58;;;;;;;6.25;4.53;;;;;;;21.78;56.10;94608.44;4166800;28;20509;-50
2022/07/08 00:33:00;;;;;;;6.68;4.47;;;;;;;21.78;55.92;94608.44;4157352;28;20080;-49
2022/07/08 00:35:02;;;;;;;5.78;4.18;;;;;;;21.78;56.46;94605.75;4171913;28;20049;-54
2022/07/08 00:37:03;;;;;;;4.82;4.13;;;;;;;21.78;56.48;94606.56;4165132;28;20048;-53
2022/07/08 00:39:05;;;;;;;5.45;4.47;;;;;;;21.76;56.54;94608.66;4175378;28;20053;-52
2022/07/08 00:41:07;;;;;;;5.70;4.70;;;;;;;21.67;56.72;94610.84;4175397;28;20054;-51
2022/07/08 00:43:26;;;;;;;5.00;4.35;;;;;;;21.64;57.10;94602.50;4167652;28;20049;-51
2022/07/08 00:45:28;;;;;;;9.82;4.78;;;;;;;21.67;56.92;94612.69;4159080;28;20049;-51
2022/07/08 00:47:30;;;;;;;5.38;4.20;;;;;;;21.70;57.04;94616.75;4171010;28;20056;-51
2022/07/08 00:49:31;;;;;;;5.13;4.10;;;;;;;21.70;57.13;94612.22;4162972;28;20590;-50
2022/07/08 00:51:35;;;;;;;6.82;4.22;;;;;;;21.74;56.84;94613.41;4168579;28;20404;-52
2022/07/08 00:53:39;;;;;;;4.78;4.20;;;;;;;21.76;56.94;94611.31;4157740;28;20145;-52
2022/07/08 00:55:40;;;;;;;5.82;4.68;;;;;;;21.81;56.78;94614.13;4171566;28;20083;-54
2022/07/08 00:57:42;;;;;;;5.45;4.40;;;;;;;21.82;56.83;94613.06;4174218;28;20080;-54
2022/07/08 00:59:44;;;;;;;8.50;5.03;;;;;;;21.71;57.17;94621.06;4162324;28;20176;-53
2022/07/08 01:01:46;;;;;;;5.07;4.57;;;;;;;21.64;57.52;94607.84;4172482;28;20129;-54
2022/07/08 01:03:48;;;;;;;5.30;4.45;;;;;;;21.64;57.33;94607.84;4172419;28;20045;-50
2022/07/08 01:05:50;;;;;;;6.88;5.05;;;;;;;21.60;57.76;94604.00;4171252;28;20088;-52
2022/07/08 01:07:52;;;;;;;7.05;4.97;;;;;;;21.59;57.64;94611.16;4174892;28;20041;-51
2022/07/08 01:09:54;;;;;;;6.75;4.95;;;;;;;21.54;57.63;94603.06;4172165;28;20658;-53
2022/07/08 01:11:56;;;;;;;6.78;5.18;;;;;;;21.53;57.77;94600.63;4174474;28;20469;-53
2022/07/08 01:13:57;;;;;;;8.13;5.20;;;;;;;21.54;57.73;94608.41;4161476;28;20056;-51
2022/07/08 01:15:59;;;;;;;8.88;4.95;;;;;;;21.56;58.05;94606.31;4175191;28;20048;-50
2022/07/08 01:18:01;;;;;;;5.82;5.20;;;;;;;21.56;58.02;94606.31;4171218;28;20049;-54
2022/07/08 01:20:03;;;;;;;6.63;5.45;;;;;;;21.58;58.21;94604.22;4166477;28;20053;-53
2022/07/08 01:22:05;;;;;;;5.40;4.90;;;;;;;21.58;57.68;94604.22;4169476;28;20515;-54
2022/07/08 01:24:07;;;;;;;6.30;4.60;;;;;;;21.51;57.90;94602.69;4168011;28;20555;-52
2022/07/08 01:26:12;;;;;;;5.25;4.75;;;;;;;21.38;58.12;94609.00;4172773;28;20376;-53
2022/07/08 01:28:15;;;;;;;5.40;4.63;;;;;;;21.31;58.38;94601.13;4168225;28;20136;-52
2022/07/08 01:30:17;;;;;;;6.28;5.00;;;;;;;21.28;58.43;94599.72;4161702;28;20057;-52
2022/07/08 01:32:19;;;;;;;6.53;4.85;;;;;;;21.26;58.56;94599.16;4160145;28;20082;-54
2022/07/08 01:34:21;;;;;;;7.13;5.07;;;;;;;21.18;58.99;94601.31;4167483;28;20131;-55
2022/07/08 01:36:23;;;;;;;6.25;5.05;;;;;;;21.10;59.20;94602.47;4177487;28;20060;-51
2022/07/08 01:38:24;;;;;;;6.88;5.13;;;;;;;21.02;59.39;94605.44;4164638;28;20481;-54
2022/07/08 01:40:27;;;;;;;6.57;5.70;;;;;;;20.99;59.65;94608.56;4172268;28;20057;-53
2022/07/08 01:42:29;;;;;;;6.68;5.50;;;;;;;21.00;59.70;94607.53;4172692;28;20072;-51
2022/07/08 01:44:32;;;;;;;6.32;5.47;;;;;;;21.05;59.67;94608.47;4175953;28;20069;-53
2022/07/08 01:46:33;;;;;;;6.53;5.82;;;;;;;21.14;59.38;94602.81;4176127;28;20459;-54
2022/07/08 01:48:35;;;;;;;8.27;5.53;;;;;;;21.19;59.53;94597.63;4161741;28;20051;-53
2022/07/08 01:50:37;;;;;;;9.35;5.72;;;;;;;21.25;59.15;94604.69;4176472;28;20053;-53
2022/07/08 01:52:39;;;;;;;6.93;5.68;;;;;;;21.28;59.35;94604.25;4162777;28;20053;-54
2022/07/08 01:54:40;;;;;;;6.22;5.47;;;;;;;21.29;59.15;94600.53;4177734;28;20053;-53
2022/07/08 01:56:42;;;;;;;7.07;5.15;;;;;;;21.36;59.04;94603.09;4177652;28;20049;-54
2022/07/08 01:58:44;;;;;;;12.20;5.70;;;;;;;21.40;58.68;94607.78;4168566;28;20052;-52
2022/07/08 02:00:46;;;;;;;5.30;4.80;;;;;;;21.44;58.67;94603.59;4169775;28;20077;-50
2022/07/08 02:02:47;;;;;;;9.00;5.18;;;;;;;21.45;58.54;94604.44;4167005;28;20132;-53
2022/07/08 02:04:50;;;;;;;10.57;5.78;;;;;;;21.49;58.51;94610.94;4160923;28;20508;-53
2022/07/08 02:06:51;;;;;;;7.20;5.55;;;;;;;21.49;58.64;94608.28;4175358;28;20041;-54
2022/07/08 02:08:53;;;;;;;9.50;5.38;;;;;;;21.48;58.34;94609.31;4168985;28;20060;-52
2022/07/08 02:13:16;;;;;;;6.60;5.05;;;;;;;21.41;58.64;94619.22;4162160;28;20053;-54
2022/07/08 02:15:18;;;;;;;6.22;5.43;;;;;;;21.38;58.64;94619.66;4177723;28;20497;-54
2022/07/08 02:17:23;;;;;;;8.15;6.43;;;;;;;21.32;58.58;94623.28;4176524;28;20283;-55
2022/07/08 02:19:25;;;;;;;6.43;5.05;;;;;;;21.29;58.85;94621.84;4176960;28;20535;-52
2022/07/08 02:21:27;;;;;;;7.70;5.47;;;;;;;21.29;58.90;94619.19;4163137;28;20474;-53
2022/07/08 02:23:29;;;;;;;6.53;5.85;;;;;;;21.31;58.90;94625.09;4173519;28;20049;-52
2022/07/08 02:25:30;;;;;;;8.13;6.30;;;;;;;21.32;58.99;94623.28;4167191;28;20057;-54
2022/07/08 02:27:32;;;;;;;7.00;6.30;;;;;;;21.28;58.80;94626.38;4176464;28;20045;-53
2022/07/08 02:29:34;;;;;;;6.78;5.55;;;;;;;21.31;58.69;94621.63;4164955;28;20049;-49
2022/07/08 02:31:36;;;;;;;11.48;5.57;;;;;;;21.29;59.03;94621.84;4159685;28;20053;-50
2022/07/08 02:33:38;;;;;;;7.03;6.00;;;;;;;21.28;58.89;94622.91;4172424;28;20411;-54
2022/07/08 02:35:39;;;;;;;9.18;5.82;;;;;;;21.28;59.03;94629.03;4166969;28;20063;-53
2022/07/08 02:37:41;;;;;;;10.50;6.00;;;;;;;21.25;58.96;94634.84;4168309;28;20456;-56
2022/07/08 02:39:43;;;;;;;8.65;6.53;;;;;;;21.23;59.23;94631.59;4160994;28;20045;-50
2022/07/08 02:41:45;;;;;;;10.23;7.35;;;;;;;21.16;58.73;94636.16;4171213;28;20056;-52
2022/07/08 02:43:46;;;;;;;9.35;7.47;;;;;;;21.11;58.79;94641.38;4161601;28;20459;-55
2022/07/08 02:45:48;;;;;;;14.32;6.88;;;;;;;20.73;59.29;94636.34;4163872;28;20124;-53
2022/07/08 02:47:50;;;;;;;13.40;6.70;;;;;;;19.96;61.56;94629.56;4174947;28;20385;-52
2022/07/08 02:49:52;;;;;;;11.10;6.97;;;;;;;19.60;62.69;94641.69;4175654;28;20241;-54
2022/07/08 02:51:53;;;;;;;9.18;6.53;;;;;;;19.49;63.25;94641.56;4176701;28;20053;-52
2022/07/08 02:53:55;;;;;;;10.77;7.05;;;;;;;18.92;64.84;94644.97;4176308;28;20441;-54
2022/07/08 02:55:57;;;;;;;7.97;6.63;;;;;;;18.34;67.07;94645.78;4173349;28;20076;-52
2022/07/08 02:57:59;;;;;;;10.48;7.72;;;;;;;18.45;67.15;94640.84;4166481;28;20080;-51
2022/07/08 03:00:01;;;;;;;11.65;6.50;;;;;;;18.69;66.61;94641.97;4171245;28;20171;-52
2022/07/08 03:02:03;;;;;;;10.38;6.88;;;;;;;18.99;65.46;94639.63;4163393;28;20145;-53
2022/07/08 03:04:05;;;;;;;12.23;7.30;;;;;;;19.28;64.57;94629.47;4167125;28;20468;-54
2022/07/08 03:06:06;;;;;;;8.60;6.70;;;;;;;19.52;63.70;94638.47;4168949;28;20272;-53
2022/07/08 03:08:08;;;;;;;7.47;6.65;;;;;;;19.70;62.99;94630.59;4170681;28;20052;-52
2022/07/08 03:10:10;;;;;;;9.82;7.00;;;;;;;19.85;62.66;94632.91;4168301;28;20126;-51
2022/07/08 03:12:11;;;;;;;8.55;6.75;;;;;;;19.99;62.04;94633.63;4160839;28;20955;-52
2022/07/08 03:14:13;;;;;;;8.10;7.03;;;;;;;20.02;61.70;94630.50;4168569;28;20077;-53
2022/07/08 03:16:15;;;;;;;10.32;7.78;;;;;;;20.11;61.58;94631.88;4168070;28;20053;-55
2022/07/08 03:18:17;;;;;;;8.35;6.53;;;;;;;20.16;61.52;94632.03;4168887;28;20060;-54
2022/07/08 03:20:19;;;;;;;10.25;6.65;;;;;;;20.22;61.54;94630.34;4176810;28;20401;-55
2022/07/08 03:22:20;;;;;;;12.50;6.60;;;;;;;20.28;61.24;94625.97;4168207;28;20053;-52
2022/07/08 03:24:22;;;;;;;9.15;6.47;;;;;;;20.33;61.10;94629.59;4173352;28;20473;-54
2022/07/08 03:26:24;;;;;;;10.80;6.57;;;;;;;20.37;61.19;94624.63;4170972;28;20061;-53
2022/07/08 03:28:26;;;;;;;10.80;6.15;;;;;;;20.42;61.01;94625.59;4165537;28;20166;-54
2022/07/08 03:30:28;;;;;;;10.27;6.72;;;;;;;20.42;60.96;94628.25;4169412;28;20541;-53
2022/07/08 03:32:30;;;;;;;6.85;5.65;;;;;;;20.44;60.91;94628.06;4166305;28;20057;-51
2022/07/08 03:34:31;;;;;;;10.10;5.93;;;;;;;20.47;60.86;94635.56;4167735;28;20052;-49
2022/07/08 03:36:37;;;;;;;8.07;6.45;;;;;;;20.39;61.08;94636.69;4159420;28;20059;-52
2022/07/08 03:38:38;;;;;;;10.52;7.10;;;;;;;20.27;61.19;94640.31;4164893;28;20542;-51
2022/07/08 03:43:01;;;;;;;10.80;6.55;;;;;;;19.17;64.76;94650.34;4158838;28;20114;-54
2022/07/08 03:45:03;;;;;;;11.10;7.32;;;;;;;19.00;65.64;94651.88;4170390;28;20531;-50
2022/07/08 03:47:05;;;;;;;8.15;6.88;;;;;;;19.11;65.44;94653.84;4162282;28;20123;-54
2022/07/08 03:49:07;;;;;;;7.53;6.70;;;;;;;19.25;65.22;94659.91;4165524;28;20042;-55
2022/07/08 03:51:10;;;;;;;10.10;7.17;;;;;;;19.41;64.75;94647.97;4175579;28;20045;-51
2022/07/08 03:53:11;;;;;;;8.65;7.13;;;;;;;19.60;64.27;94654.97;4175832;28;20824;-54
2022/07/08 03:55:13;;;;;;;9.88;7.55;;;;;;;19.71;63.67;94650.81;4175425;28;20362;-51
2022/07/08 03:57:15;;;;;;;12.20;8.25;;;;;;;19.71;63.78;94652.69;4171434;28;20125;-51
2022/07/08 03:59:18;;;;;;;11.48;7.50;;;;;;;19.84;63.34;94660.53;4175739;28;20048;-54
2022/07/08 04:01:19;;;;;;;11.98;7.40;;;;;;;19.99;62.94;94645.06;4164669;28;20059;-53
2022/07/08 04:03:21;;;;;;;10.90;7.50;;;;;;;20.14;62.49;94654.56;4170581;28;20136;-52
2022/07/08 04:05:23;;;;;;;9.25;8.27;;;;;;;20.23;62.01;94647.91;4171705;28;20088;-51
2022/07/08 04:07:25;;;;;;;8.75;7.22;;;;;;;20.34;61.77;94646.38;4164735;28;20473;-52
2022/07/08 04:09:27;;;;;;;12.00;7.35;;;;;;;20.49;61.23;94643.34;4175818;28;20056;-53
2022/07/08 04:11:28;;;;;;;14.05;8.05;;;;;;;20.64;60.61;94649.13;4164914;28;20053;-54
2022/07/08 04:13:30;;;;;;;11.20;7.88;;;;;;;20.73;60.45;94644.31;4172264;28;20049;-50
2022/07/08 04:15:33;;;;;;;10.88;7.65;;;;;;;20.75;60.04;94643.06;4174998;28;20532;-54
2022/07/08 04:17:35;;;;;;;11.02;7.80;;;;;;;20.75;60.30;94642.25;4168878;28;20045;-51
2022/07/08 04:19:36;;;;;;;12.15;8.38;;;;;;;20.64;60.40;94644.63;4159307;28;20053;-53
2022/07/08 04:21:40;;;;;;;10.02;8.40;;;;;;;20.56;60.52;94644.88;4159072;28;20045;-50
2022/07/08 04:23:41;;;;;;;14.88;8.52;;;;;;;20.57;60.86;94645.72;4158702;28;20262;-52
2022/07/08 04:25:43;;;;;;;11.57;8.23;;;;;;;20.36;61.13;94649.63;4158619;28;20062;-53
2022/07/08 04:27:45;;;;;;;10.73;7.95;;;;;;;20.33;60.87;94644.75;4163007;28;20140;-52
2022/07/08 04:29:47;;;;;;;10.50;7.57;;;;;;;20.20;61.08;94651.81;4168444;28;20063;-53
2022/07/08 04:31:48;;;;;;;10.73;7.07;;;;;;;20.21;60.36;94647.31;4169198;28;20118;-52
2022/07/08 04:33:50;;;;;;;8.18;6.10;;;;;;;20.20;59.82;94651.03;4174791;28;20114;-50
2022/07/08 04:35:52;;;;;;;9.65;5.88;;;;;;;20.19;59.79;94655.50;4159052;28;20057;-51
2022/07/08 04:37:54;;;;;;;12.38;6.60;;;;;;;20.01;59.94;94653.63;4163221;28;20106;-53
2022/07/08 04:40:01;;;;;;;10.85;6.15;;;;;;;19.96;60.16;94653.50;4168163;28;20053;-52
2022/07/08 04:42:04;;;;;;;8.07;6.55;;;;;;;20.02;60.37;94647.28;4158353;28;20056;-51
2022/07/08 04:44:06;;;;;;;9.93;7.63;;;;;;;20.10;60.84;94653.38;4175477;28;20041;-52
2022/07/08 04:46:08;;;;;;;9.85;7.03;;;;;;;20.17;60.61;94646.13;4170089;28;20080;-53
2022/07/08 04:48:09;;;;;;;8.32;7.32;;;;;;;20.18;60.67;94653.09;4165824;28;20048;-53
2022/07/08 04:50:11;;;;;;;8.45;7.03;;;;;;;20.17;61.01;94646.13;4167671;28;20049;-52
2022/07/08 04:52:13;;;;;;;9.63;7.78;;;;;;;20.21;60.43;94652.63;4158252;28;20528;-51
2022/07/08 04:54:15;;;;;;;10.23;8.07;;;;;;;19.99;61.21;94653.03;4175635;28;20053;-55
2022/07/08 04:56:16;;;;;;;16.95;7.65;;;;;;;20.10;61.09;94653.38;4175055;28;20044;-52
2022/07/08 04:58:18;;;;;;;10.55;7.30;;;;;;;20.07;61.22;94651.13;4173132;28;20126;-53
2022/07/08 05:00:20;;;;;;;11.48;7.85;;;;;;;19.89;61.68;94649.25;4161574;28;20103;-50
2022/07/08 05:02:21;;;;;;;8.80;7.13;;;;;;;19.71;61.67;94652.69;4175064;28;20340;-51
2022/07/08 05:04:23;;;;;;;11.40;7.95;;;;;;;19.64;62.02;94644.72;4174979;28;20088;-54
2022/07/08 05:06:25;;;;;;;8.50;7.65;;;;;;;19.62;62.11;94647.59;4165919;28;20064;-53
2022/07/08 05:08:26;;;;;;;9.50;7.50;;;;;;;19.83;62.12;94642.94;4176097;28;20045;-52
2022/07/08 05:10:29;;;;;;;12.40;7.00;;;;;;;19.96;61.50;94647.34;4178695;28;20492;-53
2022/07/08 05:12:30;;;;;;;11.80;7.78;;;;;;;20.02;61.40;94641.97;4167770;28;20107;-52
2022/07/08 05:14:32;;;;;;;8.55;7.22;;;;;;;20.23;60.84;94650.56;4162255;28;20057;-54
2022/07/08 05:16:34;;;;;;;9.88;8.10;;;;;;;20.42;60.33;94648.75;4172505;28;20103;-51
2022/07/08 05:18:36;;;;;;;15.02;7.82;;;;;;;20.65;59.66;94650.78;4163659;28;20231;-55
2022/07/08 05:20:38;;;;;;;10.68;7.70;;;;;;;20.84;59.16;94652.38;4161544;28;20059;-52
2022/07/08 05:22:40;;;;;;;9.05;7.53;;;;;;;20.96;58.71;94649.75;4166182;28;20381;-54
2022/07/08 05:24:42;;;;;;;11.98;7.50;;;;;;;21.09;58.16;94651.44;4178028;28;20560;-50
2022/07/08 05:26:44;;;;;;;10.85;7.40;;;;;;;21.20;58.06;94657.84;4177930;28;20049;-49
2022/07/08 05:28:46;;;;;;;11.93;7.10;;;;;;;21.01;58.54;94657.88;4177929;28;20479;-48
2022/07/08 05:30:47;;;;;;;9.07;8.05;;;;;;;20.75;59.12;94656.38;4161404;28;20049;-48
2022/07/08 05:32:49;;;;;;;9.38;7.22;;;;;;;20.55;60.18;94655.78;4164825;28;20131;-53
2022/07/08 05:34:51;;;;;;;10.80;8.05;;;;;;;20.18;61.00;94656.56;4170803;28;20131;-52
2022/07/08 05:36:53;;;;;;;10.52;7.85;;;;;;;20.18;61.49;94645.91;4161676;28;20343;-53
2022/07/08 05:38:54;;;;;;;11.30;8.38;;;;;;;20.38;61.06;94648.38;4159588;28;20049;-53
2022/07/08 05:40:56;;;;;;;9.90;8.27;;;;;;;20.55;60.42;94645.13;4160258;28;20385;-48
2022/07/08 05:42:58;;;;;;;13.25;8.48;;;;;;;20.59;60.35;94643.69;4168749;28;20057;-53
2022/07/08 05:45:00;;;;;;;12.18;8.20;;;;;;;20.70;60.13;94636.78;4167301;28;20060;-53
2022/07/08 05:47:07;;;;;;;10.00;7.22;;;;;;;20.79;60.09;94638.09;4164928;28;20132;-50
2022/07/08 05:49:09;;;;;;;12.20;8.50;;;;;;;20.98;59.16;94639.69;4172149;28;20052;-52
2022/07/08 05:51:11;;;;;;;12.50;8.52;;;;;;;21.14;58.95;94634.78;4177449;28;20106;-55
2022/07/08 05:53:20;;;;;;;9.85;8.25;;;;;;;21.11;58.92;94638.72;4177512;28;20049;-54
2022/07/08 05:55:22;;;;;;;15.93;8.07;;;;;;;21.01;59.15;94646.41;4177242;28;20045;-53
2022/07/08 05:57:24;;;;;;;11.40;7.47;;;;;;;21.07;59.53;94638.34;4168354;28;20050;-53
2022/07/08 05:59:27;;;;;;;8.60;7.00;;;;;;;21.23;59.03;94639.56;4174697;28;20045;-49
2022/07/08 06:01:28;;;;;;;10.10;8.50;;;;;;;21.37;58.15;94642.03;4172856;28;20080;-54
2022/07/08 06:03:30;;;;;;;10.93;8.70;;;;;;;21.50;58.39;94638.41;4166953;28;20093;-51
2022/07/08 06:05:32;;;;;;;9.15;8.18;;;;;;;21.64;57.79;94640.63;4168292;28;20053;-52
2022/07/08 06:07:34;;;;;;;13.82;8.20;;;;;;;21.50;57.53;94644.53;4174604;28;20057;-54
2022/07/08 06:09:37;;;;;;;12.88;8.27;;;;;;;21.39;58.11;94637.31;4167630;28;20061;-53
2022/07/08 06:11:38;;;;;;;12.50;8.25;;;;;;;21.34;58.27;94642.47;4166301;28;20087;-54
2022/07/08 06:13:40;;;;;;;12.18;8.50;;;;;;;21.44;58.26;94646.25;4176054;28;20068;-57
2022/07/08 06:15:46;;;;;;;11.38;7.95;;;;;;;21.44;58.08;94643.59;4168149;28;20395;-53
2022/07/08 06:17:48;;;;;;;10.25;7.93;;;;;;;21.38;58.39;94639.16;4166775;28;20057;-56
2022/07/08 06:19:49;;;;;;;12.77;8.77;;;;;;;21.26;58.37;94644.44;4167340;28;20041;-54
2022/07/08 06:21:51;;;;;;;12.45;8.82;;;;;;;21.30;58.62;94638.69;4166694;28;20048;-50
2022/07/08 06:23:53;;;;;;;10.05;7.97;;;;;;;21.33;58.92;94639.00;4174480;28;20064;-52
2022/07/08 06:25:55;;;;;;;10.27;8.07;;;;;;;21.55;58.37;94642.00;4165591;28;20075;-52
2022/07/08 06:27:56;;;;;;;8.38;7.35;;;;;;;21.77;57.65;94633.44;4173970;28;20465;-53
2022/07/08 06:29:58;;;;;;;8.00;7.13;;;;;;;21.94;57.41;94629.09;4162770;28;20057;-54
2022/07/08 06:32:00;;;;;;;11.90;8.32;;;;;;;22.11;56.67;94623.03;4160109;28;20052;-52
2022/07/08 06:34:02;;;;;;;10.18;7.15;;;;;;;22.24;56.45;94628.16;4166362;28;20140;-55
2022/07/08 06:36:04;;;;;;;11.25;7.15;;;;;;;22.48;56.17;94621.75;4169661;28;20075;-52
2022/07/08 06:38:06;;;;;;;10.65;7.57;;;;;;;22.74;55.26;94624.16;4173859;28;20045;-52
2022/07/08 06:40:08;;;;;;;8.18;7.38;;;;;;;22.83;54.08;94620.84;4166533;28;20049;-52
2022/07/08 06:42:09;;;;;;;9.38;6.95;;;;;;;22.93;54.34;94616.75;4159595;28;20065;-54
2022/07/08 06:44:11;;;;;;;10.27;7.07;;;;;;;23.04;54.35;94623.97;4160114;28;20060;-54
2022/07/08 06:46:13;;;;;;;11.48;7.03;;;;;;;22.99;54.58;94607.78;4160209;28;20469;-52
2022/07/08 06:48:15;;;;;;;8.73;7.22;;;;;;;22.78;54.81;94611.91;4168272;28;20053;-54
2022/07/08 06:50:17;;;;;;;10.00;7.05;;;;;;;22.64;55.01;94608.72;4175826;28;20111;-56
2022/07/08 06:52:19;;;;;;;9.55;7.38;;;;;;;22.69;54.91;94608.81;4161746;28;20049;-51
2022/07/08 06:54:35;;;;;;;7.90;6.88;;;;;;;22.87;54.97;94605.97;4176372;28;20460;-52
2022/07/08 06:56:37;;;;;;;8.60;7.07;;;;;;;22.80;54.99;94607.16;4176841;28;20048;-54
2022/07/08 06:58:39;;;;;;;9.73;6.90;;;;;;;22.81;54.90;94601.59;4172367;28;20045;-56
2022/07/08 07:00:41;;;;;;;11.73;6.90;;;;;;;22.98;54.88;94595.50;4173493;28;20118;-56
2022/07/08 07:02:42;;;;;;;11.35;6.13;;;;;;;23.05;53.87;94594.31;4158888;28;20053;-55
2022/07/08 07:04:45;;;;;;;10.93;6.80;;;;;;;22.84;53.91;94587.78;4171296;28;20045;-51
2022/07/08 07:06:47;;;;;;;7.85;6.38;;;;;;;22.96;53.99;94593.06;4166888;28;20053;-51
2022/07/08 07:08:48;;;;;;;6.85;5.97;;;;;;;23.03;53.84;94593.75;4172975;28;20155;-54
2022/07/08 07:10:50;;;;;;;6.63;5.05;;;;;;;23.16;52.50;94592.63;4168256;28;20103;-54
2022/07/08 07:12:52;;;;;;;8.10;5.70;;;;;;;23.28;53.08;94585.38;4162435;28;20130;-54
2022/07/08 07:14:54;;;;;;;5.30;4.47;;;;;;;23.56;52.70;94582.91;4165005;28;20103;-55
2022/07/08 07:16:55;;;;;;;8.20;3.63;;;;;;;23.66;51.15;94585.72;4167823;28;20049;-57
2022/07/08 07:18:57;;;;;;;4.05;3.40;;;;;;;23.63;51.10;94581.66;4165878;28;20126;-51
2022/07/08 07:20:59;;;;;;;4.30;3.38;;;;;;;23.62;51.43;94584.63;4175905;28;20052;-53
2022/07/08 07:23:00;;;;;;;4.43;3.55;;;;;;;23.50;50.43;94585.47;4159471;28;20103;-54
2022/07/08 07:25:02;;;;;;;5.50;4.40;;;;;;;;;;4169172;28;20045;-52
2022/07/08 07:27:12;;;;;;;5.75;4.13;;;;;;;23.33;52.12;94581.97;4174436;28;20070;-52
2022/07/08 07:29:14;;;;;;;4.93;3.75;;;;;;;22.96;52.49;94581.56;4174536;28;20164;-52
2022/07/08 07:31:16;;;;;;;6.38;3.97;;;;;;;23.01;52.41;94584.34;4166794;28;20485;-52
2022/07/08 07:33:17;;;;;;;8.93;3.97;;;;;;;23.21;52.61;94590.06;4158051;28;20552;-53
2022/07/08 07:35:20;;;;;;;5.30;4.05;;;;;;;23.57;52.08;94582.63;4168919;28;20049;-52
2022/07/08 07:37:22;;;;;;;4.65;4.00;;;;;;;23.66;50.33;94586.56;4164849;28;20041;-54
2022/07/08 07:39:25;;;;;;;4.35;3.40;;;;;;;23.91;49.69;94588.81;4161996;28;20049;-54
2022/07/08 07:41:27;;;;;;;8.32;3.58;;;;;;;23.86;49.83;94588.75;4176132;28;20429;-54
2022/07/08 07:43:29;;;;;;;6.10;3.88;;;;;;;24.04;49.66;94579.63;4175318;28;20129;-51
2022/07/08 07:45:30;;;;;;;4.60;3.83;;;;;;;24.25;49.19;94578.06;4160751;28;20061;-51
2022/07/08 07:47:32;;;;;;;9.45;4.55;;;;;;;24.41;49.19;94581.75;4160184;28;20055;-54
2022/07/08 07:49:34;;;;;;;4.88;3.70;;;;;;;24.61;48.76;94588.44;4174615;28;20048;-49
2022/07/08 07:51:36;;;;;;;6.03;3.72;;;;;;;24.78;47.93;94583.84;4175629;28;20106;-53
2022/07/08 07:53:37;;;;;;;8.20;4.80;;;;;;;24.91;48.14;94588.81;4176281;28;20049;-52
2022/07/08 07:55:39;;;;;;;4.05;3.58;;;;;;;24.58;47.27;94588.94;4174740;28;20471;-54
2022/07/08 07:57:41;;;;;;;3.92;3.30;;;;;;;24.19;47.79;94587.06;4171134;28;20143;-51
2022/07/08 07:59:44;;;;;;;4.00;3.60;;;;;;;24.11;48.15;94585.66;4170650;28;20061;-53
2022/07/08 08:01:45;;;;;;;6.50;3.70;;;;;;;24.03;48.34;94588.75;4163155;28;20406;-52
2022/07/08 08:03:47;;;;;;;4.28;3.80;;;;;;;24.00;48.93;94589.22;4166307;28;20049;-53
2022/07/08 08:05:49;;;;;;;4.45;3.88;;;;;;;23.96;48.43;94585.41;4167082;28;20497;-52
2022/07/08 08:07:50;;;;;;;5.78;3.58;;;;;;;23.87;48.27;94592.22;4175354;28;20544;-53
2022/07/08 08:09:52;;;;;;;4.18;3.15;;;;;;;24.03;47.78;94580.72;4170061;28;20040;-51
2022/07/08 08:11:54;;;;;;;4.35;3.25;;;;;;;24.34;48.32;94583.78;4167795;28;20146;-54
2022/07/08 08:13:55;;;;;;;4.85;3.45;;;;;;;24.47;46.74;94588.78;4170209;28;20057;-52
2022/07/08 08:15:58;;;;;;;4.30;3.17;;;;;;;24.68;47.04;94591.75;4166774;28;20067;-54
2022/07/08 08:17:59;;;;;;;3.10;2.80;;;;;;;24.97;46.28;94589.66;4170987;28;20057;-49
2022/07/08 08:20:03;;;;;;;5.38;3.10;;;;;;;25.23;45.83;94582.75;4164430;28;20413;-54
2022/07/08 08:22:05;;;;;;;5.18;3.50;;;;;;;25.45;45.50;94579.19;4171848;28;20091;-53
2022/07/08 08:24:07;;;;;;;6.88;3.30;;;;;;;25.61;45.10;94575.56;4161628;28;20122;-54
2022/07/08 08:26:09;;;;;;;6.45;3.35;;;;;;;25.76;45.24;94580.22;4173058;28;20041;-53
2022/07/08 08:28:11;;;;;;;4.38;3.17;;;;;;;25.64;44.00;94585.78;4174861;28;20045;-49
2022/07/08 08:30:14;;;;;;;3.10;2.58;;;;;;;25.47;44.22;94574.38;4165386;28;20056;-51
2022/07/08 08:32:15;;;;;;;5.47;3.33;;;;;;;25.36;43.82;94567.28;4168471;28;20536;-54
2022/07/08 08:34:17;;;;;;;6.95;3.63;;;;;;;25.36;44.99;94569.97;4171562;28;20128;-51
2022/07/08 08:36:19;;;;;;;5.97;2.88;;;;;;;25.45;44.60;94569.25;4168266;28;20053;-52
2022/07/08 08:38:20;;;;;;;7.00;4.85;;;;;;;25.20;43.99;94567.16;4161274;28;20513;-52
2022/07/08 08:40:23;;;;;;;5.00;2.92;;;;;;;25.21;43.41;94568.78;4167235;28;20052;-52
2022/07/08 08:42:25;;;;;;;3.22;2.40;;;;;;;25.43;42.07;94571.38;4172027;28;20061;-54
2022/07/08 08:44:26;;;;;;;9.57;3.10;;;;;;;25.37;42.97;94566.25;4172254;28;20091;-51
2022/07/08 08:46:31;;;;;;;4.53;2.70;;;;;;;25.26;43.34;94566.13;4165357;28;20103;-54
2022/07/08 08:48:36;;;;;;;3.88;2.58;;;;;;;25.44;43.72;94566.81;4163562;28;20071;-53
2022/07/08 08:50:55;;;;;;;3.65;2.97;;;;;;;25.71;44.58;94558.75;4177101;28;20056;-54
2022/07/08 08:52:58;;;;;;;7.10;3.30;;;;;;;25.96;44.18;94563.50;4167638;28;20045;-50
2022/07/08 08:55:00;;;;;;;4.10;3.15;;;;;;;25.55;43.57;94552.44;4176327;28;20052;-53
2022/07/08 08:57:04;;;;;;;6.20;3.20;;;;;;;25.48;43.75;94560.69;4164560;28;20107;-53
2022/07/08 08:59:06;;;;;;;6.75;4.03;;;;;;;25.54;44.56;94546.25;4170595;28;20099;-52
2022/07/08 09:01:08;;;;;;;10.88;7.38;;;;;;;25.84;44.32;94541.38;4169889;28;20586;-50
2022/07/08 09:03:10;;;;;;;3.50;3.20;;;;;;;25.73;44.37;94546.69;4164672;28;20061;-51
2022/07/08 09:05:14;;;;;;;4.03;3.40;;;;;;;25.92;43.79;94548.97;4164036;28;20050;-52
2022/07/08 09:07:15;;;;;;;;;;;;;;;26.03;43.05;94544.47;4164486;28;20067;-51
2022/07/08 09:09:17;;;;;;;3.95;3.08;;;;;;;25.93;43.37;94542.56;4177848;28;19920;-54
2022/07/08 09:11:19;;;;;;;5.00;3.17;;;;;;;26.22;43.13;94544.84;4177799;28;20102;-51
2022/07/08 09:13:25;;;;;;;7.22;2.80;;;;;;;26.53;42.17;94538.56;4177946;28;20524;-50
2022/07/08 09:15:32;;;;;;;3.60;2.72;;;;;;;26.80;40.25;94536.78;4161878;28;20479;-51
2022/07/08 09:17:42;;;;;;;8.80;2.78;;;;;;;26.79;39.78;94537.88;4159720;28;20146;-54
2022/07/08 09:19:48;;;;;;;4.78;2.90;;;;;;;26.55;41.51;94531.03;4170364;28;20053;-52
2022/07/08 09:21:52;;;;;;;7.72;3.08;;;;;;;26.04;42.30;94522.75;4165946;28;20045;-53
2022/07/08 09:23:55;;;;;;;3.47;2.80;;;;;;;26.29;41.84;94523.97;4160727;28;20061;-52
2022/07/08 09:26:04;;;;;;;3.65;2.88;;;;;;;26.50;41.45;94514.91;4165406;28;20103;-52
2022/07/08 09:28:06;;;;;;;8.20;5.63;;;;;;;26.68;41.19;94527.09;4170138;28;20061;-50
2022/07/08 09:30:08;;;;;;;6.20;3.05;;;;;;;26.83;40.73;94531.69;4170680;28;20353;-52
2022/07/08 09:32:13;;;;;;;6.05;2.65;;;;;;;26.98;39.52;94530.13;4161404;28;20107;-53
2022/07/08 09:34:20;;;;;;;4.70;2.70;;;;;;;27.03;38.96;94522.06;4171954;28;20104;-52
2022/07/08 09:36:22;;;;;;;3.40;2.85;;;;;;;26.64;40.10;94526.00;4167659;28;20417;-48
2022/07/08 09:38:23;;;;;;;3.78;2.90;;;;;;;26.14;40.52;94511.28;4169638;28;20346;-54